createdAt,value
2022-11-19T00:01:49.229Z,97415.80
2022-11-19T00:04:50.977Z,97418.69
2022-11-19T00:07:52.732Z,97420.60
2022-11-19T00:10:54.318Z,97418.48
2022-11-19T00:13:56.005Z,97418.30
2022-11-19T00:16:57.641Z,97425.02
2022-11-19T00:19:59.254Z,97427.67
2022-11-19T00:23:01.285Z,97431.59
2022-11-19T00:26:12.078Z,97436.48
2022-11-19T00:29:17.842Z,97438.62
2022-11-19T00:32:19.840Z,97436.17
2022-11-19T00:35:21.470Z,97443.61
2022-11-19T00:38:23.162Z,97443.11
2022-11-19T00:41:24.741Z,97443.88
2022-11-19T00:44:26.360Z,97441.77
2022-11-19T00:47:27.987Z,97444.91
2022-11-19T00:50:29.616Z,97441.40
2022-11-19T00:53:31.317Z,97444.69
2022-11-19T00:56:32.974Z,97446.52
2022-11-19T00:59:34.603Z,97445.72
2022-11-19T01:02:36.208Z,97444.25
2022-11-19T01:05:38.204Z,97446.97
2022-11-19T01:08:39.848Z,97454.01
2022-11-19T01:11:41.637Z,97457.70
2022-11-19T01:14:43.248Z,97461.97
2022-11-19T01:17:44.864Z,97456.07
2022-11-19T01:20:46.662Z,97458.00
2022-11-19T01:23:49.033Z,97466.72
2022-11-19T01:26:50.686Z,97471.42
2022-11-19T01:29:52.366Z,97477.26
2022-11-19T01:32:54.088Z,97473.60
2022-11-19T01:35:55.697Z,97472.10
2022-11-19T01:38:57.808Z,97473.80
2022-11-19T01:41:59.371Z,97480.67
2022-11-19T01:45:06.889Z,97477.02
2022-11-19T01:48:25.940Z,97472.99
2022-11-19T01:51:45.840Z,97467.25
2022-11-19T01:54:52.460Z,97468.77
2022-11-19T01:57:57.954Z,97469.38
2022-11-19T02:00:59.923Z,97465.27
2022-11-19T02:04:04.183Z,97468.52
2022-11-19T02:07:07.037Z,97474.07
2022-11-19T02:10:09.335Z,97490.89
2022-11-19T02:13:13.920Z,97491.33
2022-11-19T02:16:43.619Z,97490.89
2022-11-19T02:20:06.702Z,97482.80
2022-11-19T02:23:45.966Z,97479.92
2022-11-19T02:26:56.698Z,97481.28
2022-11-19T02:30:11.925Z,97477.46
2022-11-19T02:33:28.759Z,97479.95
2022-11-19T02:37:02.571Z,97495.25
2022-11-19T02:40:22.176Z,97500.57
2022-11-19T02:43:35.171Z,97504.95
2022-11-19T02:46:37.544Z,97508.20
2022-11-19T02:49:44.030Z,97507.93
2022-11-19T02:52:47.111Z,97513.54
2022-11-19T02:56:08.055Z,97519.80
2022-11-19T02:59:29.300Z,97518.23
2022-11-19T03:02:55.224Z,97515.25
2022-11-19T03:06:02.506Z,97520.37
2022-11-19T03:09:04.496Z,97524.00
2022-11-19T03:12:25.344Z,97533.21
2022-11-19T03:16:05.267Z,97532.06
2022-11-19T03:19:22.159Z,97537.40
2022-11-19T03:22:34.207Z,97540.45
2022-11-19T03:25:44.023Z,97539.06
2022-11-19T03:28:47.314Z,97537.77
2022-11-19T03:31:57.722Z,97539.36
2022-11-19T03:35:03.697Z,97544.28
2022-11-19T03:38:11.333Z,97543.52
2022-11-19T03:41:16.674Z,97547.63
2022-11-19T03:44:21.459Z,97551.33
2022-11-19T03:47:32.965Z,97552.28
2022-11-19T03:50:44.320Z,97555.48
2022-11-19T03:53:46.182Z,97561.11
2022-11-19T03:56:49.510Z,97566.77
2022-11-19T03:59:51.198Z,97568.77
2022-11-19T04:02:52.890Z,97568.52
2022-11-19T04:05:54.459Z,97572.64
2022-11-19T04:08:56.086Z,97580.15
2022-11-19T04:11:57.758Z,97582.33
2022-11-19T04:14:59.401Z,97584.96
2022-11-19T04:18:01.050Z,97586.98
2022-11-19T04:21:02.709Z,97586.49
2022-11-19T04:24:04.807Z,97586.55
2022-11-19T04:27:06.444Z,97592.49
2022-11-19T04:30:09.145Z,97596.82
2022-11-19T04:33:10.731Z,97602.99
2022-11-19T04:36:12.453Z,97597.73
2022-11-19T04:39:14.039Z,97596.28
2022-11-19T04:42:15.680Z,97595.73
2022-11-19T04:45:17.347Z,97603.62
2022-11-19T04:48:18.973Z,97605.71
2022-11-19T04:51:20.607Z,97610.41
2022-11-19T04:54:22.278Z,97614.29
2022-11-19T04:57:23.887Z,97612.83
2022-11-19T05:00:25.584Z,97615.22
2022-11-19T05:03:27.445Z,97621.80
2022-11-19T05:06:29.122Z,97622.70
2022-11-19T05:09:30.779Z,97616.42
2022-11-19T05:12:32.457Z,97618.55
2022-11-19T05:15:34.152Z,97618.60
2022-11-19T05:18:35.819Z,97627.45
2022-11-19T05:21:37.413Z,97631.90
2022-11-19T05:24:39.207Z,97634.48
2022-11-19T05:27:40.852Z,97630.89
2022-11-19T05:30:42.469Z,97642.70
2022-11-19T05:33:44.164Z,97652.11
2022-11-19T05:36:45.855Z,97657.66
2022-11-19T05:39:47.521Z,97658.70
2022-11-19T05:42:49.172Z,97666.79
2022-11-19T05:45:51.042Z,97678.35
2022-11-19T05:48:52.706Z,97680.95
2022-11-19T05:51:54.330Z,97680.70
2022-11-19T05:54:55.921Z,97685.02
2022-11-19T05:57:57.754Z,97689.56
2022-11-19T06:00:59.650Z,97692.02
2022-11-19T06:04:01.245Z,97690.84
2022-11-19T06:07:03.146Z,97694.52
2022-11-19T06:10:05.271Z,97696.77
2022-11-19T06:13:06.958Z,97700.71
2022-11-19T06:16:08.592Z,97710.83
2022-11-19T06:19:10.493Z,97719.39
2022-11-19T06:22:12.119Z,97726.64
2022-11-19T06:25:13.966Z,97733.48
2022-11-19T06:28:15.576Z,97737.05
2022-11-19T06:31:17.701Z,97741.30
2022-11-19T06:34:19.311Z,97747.02
2022-11-19T06:37:20.969Z,97748.04
2022-11-19T06:40:22.608Z,97750.71
2022-11-19T06:43:24.361Z,97757.25
2022-11-19T06:46:25.961Z,97766.60
2022-11-19T06:49:27.625Z,97769.34
2022-11-19T06:52:29.253Z,97770.02
2022-11-19T06:55:30.895Z,97768.16
2022-11-19T06:58:33.391Z,97772.20
2022-11-19T07:01:35.191Z,97774.27
2022-11-19T07:04:36.924Z,97777.17
2022-11-19T07:07:38.705Z,97778.00
2022-11-19T07:10:40.481Z,97778.95
2022-11-19T07:14:08.449Z,97781.77
2022-11-19T07:17:10.115Z,97790.84
2022-11-19T07:20:12.028Z,97795.86
2022-11-19T07:23:13.727Z,97793.54
2022-11-19T07:26:15.384Z,97788.14
2022-11-19T07:29:17.131Z,97786.23
2022-11-19T07:32:18.827Z,97786.35
2022-11-19T07:35:20.491Z,97787.87
2022-11-19T07:38:22.093Z,97786.08
2022-11-19T07:41:42.390Z,97789.52
2022-11-19T07:44:44.053Z,97789.27
2022-11-19T07:47:45.919Z,97786.17
2022-11-19T07:50:56.161Z,97787.89
2022-11-19T07:53:58.172Z,97795.27
2022-11-19T07:57:00.103Z,97806.83
2022-11-19T08:00:03.516Z,97803.20
2022-11-19T08:03:14.197Z,97804.43
2022-11-19T08:06:17.986Z,97804.67
2022-11-19T08:09:19.983Z,97805.66
2022-11-19T08:12:21.857Z,97806.19
2022-11-19T08:15:23.496Z,97806.83
2022-11-19T08:18:30.913Z,97804.88
2022-11-19T08:21:33.881Z,97807.15
2022-11-19T08:24:35.592Z,97802.44
2022-11-19T08:27:37.208Z,97805.77
2022-11-19T08:30:40.362Z,97802.80
2022-11-19T08:33:42.080Z,97800.05
2022-11-19T08:36:44.080Z,97797.64
2022-11-19T08:39:45.824Z,97801.83
2022-11-19T08:43:00.869Z,97806.54
2022-11-19T08:46:02.632Z,97811.50
2022-11-19T08:49:04.960Z,97815.31
2022-11-19T08:52:09.961Z,97814.23
2022-11-19T08:55:12.450Z,97819.81
2022-11-19T08:58:14.346Z,97825.56
2022-11-19T09:01:17.100Z,97822.92
2022-11-19T09:04:19.242Z,97820.77
2022-11-19T09:07:21.011Z,97821.38
2022-11-19T09:10:22.801Z,97821.38
2022-11-19T09:13:24.763Z,97820.40
2022-11-19T09:16:27.617Z,97823.45
2022-11-19T09:19:29.273Z,97825.05
2022-11-19T09:22:31.118Z,97823.10
2022-11-19T09:25:33.125Z,97825.69
2022-11-19T09:28:35.521Z,97833.02
2022-11-19T09:31:37.211Z,97830.86
2022-11-19T09:34:40.743Z,97832.88
2022-11-19T09:37:42.396Z,97837.39
2022-11-19T09:40:50.635Z,97836.18
2022-11-19T09:44:20.272Z,97838.60
2022-11-19T09:47:58.530Z,97838.09
2022-11-19T09:51:07.398Z,97837.33
2022-11-19T09:54:16.862Z,97838.21
2022-11-19T09:57:31.598Z,97840.64
2022-11-19T10:00:45.611Z,97843.63
2022-11-19T10:03:49.842Z,97844.41
2022-11-19T10:07:00.533Z,97843.94
2022-11-19T10:10:33.566Z,97841.02
2022-11-19T10:13:49.637Z,97841.61
2022-11-19T10:17:02.681Z,97845.67
2022-11-19T10:20:22.431Z,97847.79
2022-11-19T10:23:44.092Z,97848.60
2022-11-19T10:26:57.475Z,97856.77
2022-11-19T10:30:04.053Z,97857.52
2022-11-19T10:33:30.510Z,97853.27
2022-11-19T10:36:44.263Z,97852.59
2022-11-19T10:40:16.841Z,97853.61
2022-11-19T10:43:23.340Z,97857.73
2022-11-19T10:46:28.042Z,97855.18
2022-11-19T10:49:31.754Z,97851.88
2022-11-19T10:53:01.828Z,97850.46
2022-11-19T10:56:09.322Z,97841.66
2022-11-19T10:59:15.834Z,97844.45
2022-11-19T11:02:46.396Z,97842.25
2022-11-19T11:05:54.871Z,97839.74
2022-11-19T11:08:56.528Z,97843.45
2022-11-19T11:12:38.753Z,97840.30
2022-11-19T11:15:51.665Z,97840.17
2022-11-19T11:18:59.535Z,97841.90
2022-11-19T11:22:02.812Z,97839.30
2022-11-19T11:25:26.673Z,97830.29
2022-11-19T11:28:29.185Z,97825.20
2022-11-19T11:31:34.200Z,97827.48
2022-11-19T11:34:43.712Z,97826.40
2022-11-19T11:37:50.418Z,97826.52
2022-11-19T11:41:43.945Z,97824.89
2022-11-19T11:44:26.976Z,97826.71
2022-11-19T11:47:36.161Z,97828.99
2022-11-19T11:50:38.327Z,97827.60
2022-11-19T11:53:42.807Z,97825.23
2022-11-19T11:56:45.030Z,97826.35
2022-11-19T11:59:47.154Z,97828.63
2022-11-19T12:03:04.339Z,97830.59
2022-11-19T12:06:14.851Z,97840.00
2022-11-19T12:09:19.712Z,97837.80
2022-11-19T12:12:37.860Z,97839.89
2022-11-19T12:15:58.154Z,97845.10
2022-11-19T12:19:08.216Z,97842.91
2022-11-19T12:22:21.097Z,97847.51
2022-11-19T12:25:31.928Z,97851.48
2022-11-19T12:28:55.009Z,97863.30
2022-11-19T12:32:13.446Z,97851.90
2022-11-19T12:35:21.242Z,97848.76
2022-11-19T12:38:29.151Z,97848.98
2022-11-19T12:41:56.029Z,97846.91
2022-11-19T12:45:36.605Z,97850.33
2022-11-19T12:48:59.761Z,97855.69
2022-11-19T12:52:23.480Z,97855.52
2022-11-19T12:55:39.273Z,97855.39
2022-11-19T12:58:40.923Z,97851.16
2022-11-19T13:01:48.013Z,97849.01
2022-11-19T13:04:57.092Z,97850.73
2022-11-19T13:08:05.405Z,97858.44
2022-11-19T13:11:24.929Z,97856.66
2022-11-19T13:14:39.340Z,97855.77
2022-11-19T13:17:46.500Z,97861.17
2022-11-19T13:21:06.811Z,97857.08
2022-11-19T13:24:29.424Z,97859.11
2022-11-19T13:27:31.953Z,97859.06
2022-11-19T13:30:34.790Z,97863.25
2022-11-19T13:33:47.731Z,97856.82
2022-11-19T13:37:03.916Z,97862.34
2022-11-19T13:40:16.837Z,97862.53
2022-11-19T13:43:39.746Z,97860.20
2022-11-19T13:46:43.911Z,97860.82
2022-11-19T13:49:51.691Z,97856.77
2022-11-19T13:53:01.115Z,97856.23
2022-11-19T13:56:03.032Z,97851.41
2022-11-19T13:59:06.336Z,97866.66
2022-11-19T14:02:10.891Z,97868.57
2022-11-19T14:05:15.257Z,97871.13
2022-11-19T14:08:23.878Z,97871.12
2022-11-19T14:11:54.574Z,97880.15
2022-11-19T14:15:24.082Z,97878.39
2022-11-19T14:18:50.145Z,97881.13
2022-11-19T14:22:13.781Z,97872.34
2022-11-19T14:26:05.837Z,97869.83
2022-11-19T14:29:26.076Z,97873.54
2022-11-19T14:32:33.023Z,97871.85
2022-11-19T14:35:38.408Z,97876.42
2022-11-19T14:38:55.204Z,97879.60
2022-11-19T14:42:23.148Z,97877.40
2022-11-19T14:45:25.139Z,97885.06
2022-11-19T14:48:50.023Z,97886.40
2022-11-19T14:51:54.523Z,97888.56
2022-11-19T14:55:17.206Z,97890.90
2022-11-19T14:58:22.699Z,97887.11
2022-11-19T15:01:24.822Z,97891.66
2022-11-19T15:04:41.782Z,97895.08
2022-11-19T15:07:54.298Z,97899.20
2022-11-19T15:11:10.971Z,97896.52
2022-11-19T15:14:33.317Z,97897.64
2022-11-19T15:17:41.378Z,97894.71
2022-11-19T15:21:22.345Z,97901.20
2022-11-19T15:24:26.927Z,97904.06
2022-11-19T15:27:57.945Z,97904.23
2022-11-19T15:31:30.818Z,97901.27
2022-11-19T15:35:09.607Z,97902.02
2022-11-19T15:38:18.512Z,97899.72
2022-11-19T15:41:23.765Z,97899.75
2022-11-19T15:44:44.775Z,97897.83
2022-11-19T15:48:06.893Z,97900.80
2022-11-19T15:51:13.699Z,97899.30
2022-11-19T15:54:15.387Z,97897.48
2022-11-19T15:57:20.455Z,97901.73
2022-11-19T16:00:22.709Z,97906.98
2022-11-19T16:03:24.333Z,97910.88
2022-11-19T16:06:30.158Z,97903.08
2022-11-19T16:09:32.666Z,97902.73
2022-11-19T16:12:52.962Z,97900.42
2022-11-19T16:16:13.007Z,97900.45
2022-11-19T16:19:16.120Z,97896.66
2022-11-19T16:22:18.052Z,97892.30
2022-11-19T16:25:37.109Z,97897.67
2022-11-19T16:28:39.024Z,97897.59
2022-11-19T16:31:41.028Z,97896.11
2022-11-19T16:34:42.962Z,97896.23
2022-11-19T16:37:48.590Z,97900.29
2022-11-19T16:41:09.504Z,97895.00
2022-11-19T16:44:18.411Z,97897.47
2022-11-19T16:47:32.614Z,97899.69
2022-11-19T16:50:37.092Z,97897.95
2022-11-19T16:53:46.733Z,97902.75
2022-11-19T16:56:48.954Z,97904.48
2022-11-19T16:59:55.975Z,97903.38
2022-11-19T17:03:05.292Z,97898.48
2022-11-19T17:06:09.056Z,97891.98
2022-11-19T17:09:47.067Z,97893.16
2022-11-19T17:12:55.771Z,97893.20
2022-11-19T17:16:16.529Z,97889.65
2022-11-19T17:19:33.339Z,97887.71
2022-11-19T17:22:35.959Z,97888.42
2022-11-19T17:25:45.996Z,97888.93
2022-11-19T17:28:49.986Z,97890.48
2022-11-19T17:31:55.588Z,97896.56
2022-11-19T17:34:57.371Z,97898.23
2022-11-19T17:38:19.242Z,97900.59
2022-11-19T17:41:45.397Z,97900.08
2022-11-19T17:44:47.475Z,97897.44
2022-11-19T17:47:49.546Z,97893.10
2022-11-19T17:50:51.350Z,97903.08
2022-11-19T17:53:56.179Z,97901.09
2022-11-19T17:56:58.212Z,97904.69
2022-11-19T17:59:59.945Z,97901.64
2022-11-19T18:03:03.193Z,97901.56
2022-11-19T18:06:07.516Z,97891.10
2022-11-19T18:09:09.166Z,97887.45
2022-11-19T18:12:16.520Z,97888.71
2022-11-19T18:15:20.262Z,97891.90
2022-11-19T18:18:22.018Z,97889.20
2022-11-19T18:21:23.747Z,97892.38
2022-11-19T18:24:25.460Z,97893.63
2022-11-19T18:27:27.350Z,97894.38
2022-11-19T18:30:29.062Z,97893.24
2022-11-19T18:33:31.671Z,97891.79
2022-11-19T18:36:33.351Z,97890.45
2022-11-19T18:39:35.162Z,97883.81
2022-11-19T18:42:37.208Z,97882.77
2022-11-19T18:45:38.931Z,97886.88
2022-11-19T18:48:40.761Z,97886.89
2022-11-19T18:51:43.675Z,97892.19
2022-11-19T18:54:45.935Z,97894.24
2022-11-19T18:57:47.717Z,97898.76
2022-11-19T19:00:49.321Z,97899.35
2022-11-19T19:03:51.752Z,97894.93
2022-11-19T19:06:53.516Z,97898.08
2022-11-19T19:09:55.157Z,97899.05
2022-11-19T19:12:56.826Z,97908.21
2022-11-19T19:16:01.265Z,97911.05
2022-11-19T19:19:03.443Z,97905.41
2022-11-19T19:22:06.716Z,97904.06
2022-11-19T19:25:09.072Z,97901.70
2022-11-19T19:28:10.793Z,97899.68
2022-11-19T19:31:17.503Z,97901.69
2022-11-19T19:34:19.765Z,97897.95
2022-11-19T19:37:21.420Z,97897.14
2022-11-19T19:40:23.186Z,97902.47
2022-11-19T19:43:24.860Z,97905.00
2022-11-19T19:46:26.789Z,97905.77
2022-11-19T19:49:28.891Z,97906.30
2022-11-19T19:52:30.744Z,97908.83
2022-11-19T19:55:32.417Z,97907.48
2022-11-19T19:58:35.216Z,97909.14
2022-11-19T20:01:37.010Z,97912.41
2022-11-19T20:04:38.765Z,97907.94
2022-11-19T20:07:40.567Z,97903.48
2022-11-19T20:10:42.443Z,97900.60
2022-11-19T20:13:44.389Z,97905.85
2022-11-19T20:16:46.184Z,97901.89
2022-11-19T20:19:47.898Z,97900.79
2022-11-19T20:22:49.641Z,97902.59
2022-11-19T20:25:55.907Z,97905.54
2022-11-19T20:29:02.949Z,97905.41
2022-11-19T20:32:04.711Z,97904.82
2022-11-19T20:35:06.766Z,97902.64
2022-11-19T20:38:08.394Z,97909.83
2022-11-19T20:41:32.270Z,97905.30
2022-11-19T20:44:33.978Z,97908.48
2022-11-19T20:47:35.715Z,97900.75
2022-11-19T20:50:37.445Z,97894.59
2022-11-19T20:53:39.393Z,97895.45
2022-11-19T20:56:41.933Z,97896.81
2022-11-19T20:59:44.065Z,97894.88
2022-11-19T21:02:45.724Z,97894.83
2022-11-19T21:05:47.463Z,97896.40
2022-11-19T21:08:49.483Z,97897.84
2022-11-19T21:11:51.149Z,97895.96
2022-11-19T21:14:54.347Z,97899.31
2022-11-19T21:17:55.994Z,97893.80
2022-11-19T21:21:01.448Z,97892.26
2022-11-19T21:24:03.706Z,97888.16
2022-11-19T21:27:05.350Z,97882.98
2022-11-19T21:30:07.749Z,97880.36
2022-11-19T21:33:09.675Z,97881.50
2022-11-19T21:36:11.941Z,97877.98
2022-11-19T21:39:15.811Z,97883.82
2022-11-19T21:42:18.118Z,97889.60
2022-11-19T21:45:19.883Z,97890.11
2022-11-19T21:48:22.377Z,97889.27
2022-11-19T21:51:25.338Z,97888.31
2022-11-19T21:54:27.607Z,97890.70
2022-11-19T21:57:29.335Z,97887.02
2022-11-19T22:00:34.045Z,97884.26
2022-11-19T22:03:35.890Z,97883.28
2022-11-19T22:06:37.530Z,97882.55
2022-11-19T22:09:39.175Z,97882.77
2022-11-19T22:12:41.211Z,97883.15
2022-11-19T22:15:42.939Z,97882.81
2022-11-19T22:18:44.991Z,97887.10
2022-11-19T22:21:46.704Z,97886.54
2022-11-19T22:24:52.016Z,97889.54
2022-11-19T22:27:53.879Z,97892.90
2022-11-19T22:30:55.511Z,97888.17
2022-11-19T22:33:57.118Z,97886.83
2022-11-19T22:36:58.843Z,97895.83
2022-11-19T22:40:00.639Z,97898.17
2022-11-19T22:43:02.577Z,97901.30
2022-11-19T22:46:05.638Z,97899.00
2022-11-19T22:49:07.380Z,97894.31
2022-11-19T22:52:09.390Z,97891.44
2022-11-19T22:55:11.022Z,97889.89
2022-11-19T22:58:12.680Z,97890.80
2022-11-19T23:01:29.863Z,97893.04
2022-11-19T23:04:31.578Z,97902.71
2022-11-19T23:07:33.273Z,97904.55
2022-11-19T23:10:35.411Z,97907.80
2022-11-19T23:13:38.732Z,97907.08
2022-11-19T23:16:41.635Z,97910.52
2022-11-19T23:19:43.330Z,97911.99
2022-11-19T23:22:44.895Z,97907.06
2022-11-19T23:25:46.555Z,97904.45
2022-11-19T23:28:48.936Z,97901.42
2022-11-19T23:31:50.590Z,97896.20
2022-11-19T23:34:52.247Z,97892.30
2022-11-19T23:37:54.027Z,97888.98
2022-11-19T23:40:59.831Z,97888.25
2022-11-19T23:44:01.870Z,97884.77
2022-11-19T23:47:06.003Z,97879.77
2022-11-19T23:50:08.073Z,97882.44
2022-11-19T23:53:09.694Z,97883.23
2022-11-19T23:56:12.980Z,97881.27
2022-11-19T23:59:15.182Z,97879.55
